createdAt,value
2022-09-23T00:01:27.383Z,78.88
2022-09-23T00:03:55.474Z,78.90
2022-09-23T00:06:24.605Z,78.91
2022-09-23T00:08:52.858Z,78.85
2022-09-23T00:11:23.821Z,78.68
2022-09-23T00:13:55.723Z,78.63
2022-09-23T00:16:30.427Z,78.56
2022-09-23T00:18:58.568Z,78.45
2022-09-23T00:21:27.105Z,78.37
2022-09-23T00:23:55.483Z,78.20
2022-09-23T00:26:23.976Z,77.90
2022-09-23T00:28:52.047Z,77.73
2022-09-23T00:31:26.118Z,77.53
2022-09-23T00:34:00.704Z,77.43
2022-09-23T00:36:30.462Z,77.50
2022-09-23T00:38:58.657Z,77.38
2022-09-23T00:41:27.295Z,77.06
2022-09-23T00:44:00.248Z,76.70
2022-09-23T00:46:37.637Z,76.51
2022-09-23T00:49:29.430Z,76.38
2022-09-23T00:52:07.887Z,76.28
2022-09-23T00:54:35.959Z,76.17
2022-09-23T00:57:05.869Z,76.02
2022-09-23T00:59:34.793Z,75.77
2022-09-23T01:02:03.643Z,75.83
2022-09-23T01:04:31.966Z,76.02
2022-09-23T01:07:02.358Z,76.05
2022-09-23T01:09:30.412Z,75.99
2022-09-23T01:12:12.956Z,75.85
2022-09-23T01:14:53.184Z,75.85
2022-09-23T01:18:00.369Z,76.21
2022-09-23T01:20:41.857Z,75.59
2022-09-23T01:23:30.807Z,75.52
2022-09-23T01:26:23.360Z,75.83
2022-09-23T01:29:38.335Z,76.34
2022-09-23T01:32:26.959Z,76.87
2022-09-23T01:35:23.883Z,77.13
2022-09-23T01:38:40.168Z,77.48
2022-09-23T01:41:23.367Z,77.66
2022-09-23T01:44:29.737Z,77.46
2022-09-23T01:47:08.257Z,76.95
2022-09-23T01:50:30.211Z,76.56
2022-09-23T01:53:05.017Z,76.46
2022-09-23T01:55:38.422Z,76.35
2022-09-23T01:58:16.105Z,76.30
2022-09-23T02:00:53.574Z,76.15
2022-09-23T02:03:50.115Z,76.12
2022-09-23T02:06:31.622Z,76.12
2022-09-23T02:09:03.323Z,76.13
2022-09-23T02:11:36.479Z,76.14
2022-09-23T02:14:24.659Z,76.12
2022-09-23T02:16:56.172Z,76.17
2022-09-23T02:19:37.749Z,76.18
2022-09-23T02:22:16.336Z,76.23
2022-09-23T02:24:51.286Z,76.37
2022-09-23T02:27:48.018Z,76.50
2022-09-23T02:30:27.242Z,76.65
2022-09-23T02:33:11.907Z,76.70
2022-09-23T02:35:49.277Z,76.69
2022-09-23T02:38:39.229Z,76.63
2022-09-23T02:41:24.010Z,76.40
2022-09-23T02:44:08.284Z,76.19
2022-09-23T02:46:37.179Z,76.06
2022-09-23T02:49:20.172Z,75.91
2022-09-23T02:51:48.044Z,75.82
2022-09-23T02:54:26.156Z,75.88
2022-09-23T02:56:54.847Z,75.79
2022-09-23T02:59:24.192Z,75.64
2022-09-23T03:02:17.541Z,75.42
2022-09-23T03:05:12.764Z,75.35
2022-09-23T03:08:15.304Z,75.45
2022-09-23T03:10:59.712Z,75.59
2022-09-23T03:13:54.202Z,75.67
2022-09-23T03:16:36.371Z,75.71
2022-09-23T03:19:47.933Z,75.68
2022-09-23T03:22:34.546Z,75.70
2022-09-23T03:25:08.302Z,75.58
2022-09-23T03:27:37.339Z,75.28
2022-09-23T03:30:07.524Z,74.91
2022-09-23T03:32:36.631Z,74.79
2022-09-23T03:35:07.516Z,74.85
2022-09-23T03:37:47.524Z,74.96
2022-09-23T03:40:34.171Z,75.08
2022-09-23T03:43:05.138Z,75.16
2022-09-23T03:45:34.464Z,75.15
2022-09-23T03:48:03.721Z,75.16
2022-09-23T03:50:32.050Z,75.13
2022-09-23T03:53:00.235Z,75.16
2022-09-23T03:55:28.616Z,75.17
2022-09-23T03:57:56.899Z,75.23
2022-09-23T04:00:25.114Z,75.23
2022-09-23T04:02:53.398Z,75.21
2022-09-23T04:05:21.561Z,75.24
2022-09-23T04:07:51.200Z,75.25
2022-09-23T04:10:19.423Z,75.27
2022-09-23T04:12:47.543Z,75.23
2022-09-23T04:15:15.904Z,75.11
2022-09-23T04:17:43.951Z,75.10
2022-09-23T04:20:13.108Z,75.09
2022-09-23T04:22:41.493Z,75.09
2022-09-23T04:25:09.998Z,75.08
2022-09-23T04:27:38.228Z,75.13
2022-09-23T04:30:07.554Z,75.18
2022-09-23T04:32:37.235Z,75.18
2022-09-23T04:35:06.878Z,75.20
2022-09-23T04:37:34.832Z,75.28
2022-09-23T04:40:03.377Z,75.23
2022-09-23T04:42:31.431Z,75.26
2022-09-23T04:44:59.300Z,75.28
2022-09-23T04:47:27.260Z,75.26
2022-09-23T04:49:59.801Z,75.25
2022-09-23T04:52:31.391Z,75.16
2022-09-23T04:55:01.541Z,75.17
2022-09-23T04:57:31.268Z,75.15
2022-09-23T04:59:59.823Z,75.23
2022-09-23T05:02:28.312Z,75.31
2022-09-23T05:04:56.257Z,75.38
2022-09-23T05:07:24.529Z,75.43
2022-09-23T05:09:52.263Z,75.40
2022-09-23T05:12:20.201Z,75.37
2022-09-23T05:14:48.002Z,75.36
2022-09-23T05:17:15.958Z,75.25
2022-09-23T05:19:46.580Z,75.16
2022-09-23T05:22:39.700Z,74.96
2022-09-23T05:25:08.436Z,74.86
2022-09-23T05:27:37.335Z,74.74
2022-09-23T05:30:06.125Z,74.69
2022-09-23T05:32:37.346Z,74.64
2022-09-23T05:35:11.736Z,74.55
2022-09-23T05:37:40.339Z,74.50
2022-09-23T05:40:10.564Z,74.38
2022-09-23T05:42:40.419Z,74.42
2022-09-23T05:45:11.618Z,74.50
2022-09-23T05:47:45.066Z,74.56
2022-09-23T05:50:13.132Z,74.68
2022-09-23T05:52:48.636Z,74.76
2022-09-23T05:55:17.017Z,74.82
2022-09-23T05:57:48.566Z,74.98
2022-09-23T06:00:20.494Z,75.18
2022-09-23T06:02:49.560Z,75.42
2022-09-23T06:05:20.868Z,75.72
2022-09-23T06:07:49.311Z,75.99
2022-09-23T06:10:17.783Z,76.23
2022-09-23T06:12:48.653Z,76.46
2022-09-23T06:15:19.389Z,76.64
2022-09-23T06:17:51.349Z,76.83
2022-09-23T06:20:29.313Z,77.04
2022-09-23T06:23:30.105Z,77.18
2022-09-23T06:26:19.238Z,77.34
2022-09-23T06:28:50.506Z,77.58
2022-09-23T06:31:21.636Z,77.85
2022-09-23T06:34:04.682Z,78.08
2022-09-23T06:36:43.965Z,78.26
2022-09-23T06:39:19.995Z,78.51
2022-09-23T06:41:50.732Z,78.73
2022-09-23T06:44:21.752Z,78.89
2022-09-23T06:46:58.489Z,78.84
2022-09-23T06:49:58.070Z,79.14
2022-09-23T06:52:30.169Z,79.42
2022-09-23T06:54:58.751Z,79.65
2022-09-23T07:09:30.984Z,81.42
2022-09-23T07:12:01.326Z,81.71
2022-09-23T07:14:32.023Z,81.89
2022-09-23T07:17:00.275Z,81.96
2022-09-23T07:19:28.552Z,81.91
2022-09-23T07:21:57.799Z,81.82
2022-09-23T07:24:27.065Z,81.70
2022-09-23T07:26:56.496Z,81.53
2022-09-23T07:29:31.303Z,81.51
2022-09-23T07:32:13.197Z,81.15
2022-09-23T07:34:43.728Z,81.12
2022-09-23T07:37:12.915Z,81.02
2022-09-23T07:39:46.180Z,80.93
2022-09-23T07:42:19.021Z,80.85
2022-09-23T07:44:47.607Z,80.59
2022-09-23T07:47:19.741Z,80.35
2022-09-23T07:49:54.305Z,79.81
2022-09-23T07:52:22.821Z,78.92
2022-09-23T07:54:55.335Z,78.81
2022-09-23T07:57:24.368Z,78.67
2022-09-23T07:59:52.768Z,78.56
2022-09-23T08:02:21.495Z,78.57
2022-09-23T08:04:50.156Z,78.43
2022-09-23T08:07:19.536Z,78.34
2022-09-23T08:09:47.920Z,77.99
2022-09-23T08:12:18.883Z,77.38
2022-09-23T08:14:47.850Z,76.88
2022-09-23T08:17:16.464Z,75.71
2022-09-23T08:19:45.333Z,74.19
2022-09-23T08:22:16.478Z,74.59
2022-09-23T08:24:45.388Z,74.09
2022-09-23T08:27:14.730Z,73.41
2022-09-23T08:29:47.009Z,72.75
2022-09-23T08:32:18.392Z,71.58
2022-09-23T08:34:47.058Z,69.48
2022-09-23T08:37:21.382Z,68.63
2022-09-23T08:39:50.239Z,68.27
2022-09-23T08:42:27.187Z,67.21
2022-09-23T08:45:02.082Z,67.46
2022-09-23T08:48:00.843Z,66.87
2022-09-23T08:50:45.351Z,66.69
2022-09-23T08:53:36.216Z,65.66
2022-09-23T08:56:22.419Z,64.24
2022-09-23T08:59:20.819Z,63.03
2022-09-23T09:02:01.392Z,61.13
2022-09-23T09:04:50.665Z,57.32
2022-09-23T09:07:38.433Z,55.70
2022-09-23T09:10:20.826Z,53.97
2022-09-23T09:12:54.980Z,51.08
2022-09-23T09:15:31.165Z,50.01
2022-09-23T09:18:17.541Z,49.06
2022-09-23T09:20:58.049Z,47.81
2022-09-23T09:23:36.923Z,46.13
2022-09-23T09:26:20.251Z,44.33
2022-09-23T09:29:23.377Z,43.57
2022-09-23T09:31:53.486Z,42.30
2022-09-23T09:34:44.140Z,41.71
2022-09-23T09:37:53.404Z,40.57
2022-09-23T09:40:28.877Z,39.08
2022-09-23T09:42:57.864Z,38.59
2022-09-23T09:45:42.707Z,37.44
2022-09-23T09:48:19.558Z,37.33
2022-09-23T09:50:53.308Z,36.96
2022-09-23T09:53:28.608Z,36.34
2022-09-23T09:56:11.024Z,35.21
2022-09-23T09:58:52.611Z,35.26
2022-09-23T10:01:37.168Z,36.13
2022-09-23T10:04:35.315Z,36.30
2022-09-23T10:07:16.237Z,37.23
2022-09-23T10:09:58.318Z,37.16
2022-09-23T10:12:47.467Z,37.24
2022-09-23T10:15:44.751Z,37.04
2022-09-23T10:18:27.731Z,36.84
2022-09-23T10:21:28.350Z,37.08
2022-09-23T10:24:00.157Z,37.71
2022-09-23T10:27:10.476Z,38.33
2022-09-23T10:29:51.675Z,38.80
2022-09-23T10:32:40.315Z,38.70
2022-09-23T10:35:15.106Z,38.44
2022-09-23T10:37:54.032Z,38.99
2022-09-23T10:40:57.459Z,39.65
2022-09-23T10:43:58.897Z,40.57
2022-09-23T10:46:41.357Z,40.90
2022-09-23T10:49:33.879Z,41.04
2022-09-23T10:52:16.344Z,40.18
2022-09-23T10:55:24.747Z,40.58
2022-09-23T10:58:07.533Z,40.88
2022-09-23T11:00:48.164Z,41.63
2022-09-23T11:03:49.041Z,41.80
2022-09-23T11:06:45.577Z,41.90
2022-09-23T11:09:41.570Z,40.20
2022-09-23T11:12:40.349Z,39.81
2022-09-23T11:15:33.434Z,39.06
2022-09-23T11:18:56.040Z,37.14
2022-09-23T11:22:08.411Z,36.73
2022-09-23T11:25:10.386Z,36.69
2022-09-23T11:28:07.735Z,36.79
2022-09-23T11:30:45.916Z,36.76
2022-09-23T11:33:42.162Z,36.40
2022-09-23T11:36:27.335Z,36.43
2022-09-23T11:39:00.727Z,35.70
2022-09-23T11:41:37.661Z,34.12
2022-09-23T11:44:29.713Z,35.10
2022-09-23T11:47:09.510Z,35.33
2022-09-23T11:49:42.636Z,34.91
2022-09-23T11:52:30.879Z,34.03
2022-09-23T11:55:27.901Z,34.38
2022-09-23T11:58:50.138Z,34.98
2022-09-23T12:01:37.630Z,34.44
2022-09-23T12:04:19.742Z,33.96
2022-09-23T12:06:58.589Z,34.20
2022-09-23T12:09:58.175Z,34.26
2022-09-23T12:12:41.144Z,33.79
2022-09-23T12:15:44.648Z,33.80
2022-09-23T12:18:50.287Z,33.69
2022-09-23T12:21:50.824Z,33.35
2022-09-23T12:24:44.998Z,32.80
2022-09-23T12:27:37.065Z,33.62
2022-09-23T12:30:16.769Z,33.50
2022-09-23T12:32:44.984Z,33.49
2022-09-23T12:35:33.718Z,32.72
2022-09-23T12:38:02.488Z,32.57
2022-09-23T12:40:35.906Z,33.24
2022-09-23T12:43:04.076Z,33.69
2022-09-23T12:45:35.487Z,34.17
2022-09-23T12:48:25.246Z,34.51
2022-09-23T12:51:07.615Z,35.10
2022-09-23T12:53:35.538Z,35.66
2022-09-23T12:56:28.165Z,35.42
2022-09-23T12:59:28.660Z,36.13
2022-09-23T13:01:57.967Z,36.88
2022-09-23T13:05:03.917Z,36.59
2022-09-23T13:07:34.272Z,36.05
2022-09-23T13:10:33.634Z,36.83
2022-09-23T13:13:02.543Z,37.66
2022-09-23T13:15:34.435Z,38.21
2022-09-23T13:18:24.421Z,38.58
2022-09-23T13:20:55.122Z,39.29
2022-09-23T13:23:28.955Z,38.81
2022-09-23T13:26:02.478Z,38.11
2022-09-23T13:28:32.237Z,38.35
2022-09-23T13:31:06.626Z,38.38
2022-09-23T13:33:43.281Z,39.38
2022-09-23T13:36:16.087Z,39.96
2022-09-23T13:38:47.125Z,40.68
2022-09-23T13:41:28.719Z,40.17
2022-09-23T13:44:08.160Z,40.25
2022-09-23T13:46:46.049Z,40.39
2022-09-23T13:49:27.007Z,41.00
2022-09-23T13:51:58.450Z,41.02
2022-09-23T13:54:36.997Z,40.91
2022-09-23T13:57:24.646Z,41.34
2022-09-23T13:59:55.170Z,41.50
2022-09-23T14:02:26.171Z,41.47
2022-09-23T14:05:01.417Z,41.22
2022-09-23T14:07:29.725Z,41.60
2022-09-23T14:10:04.862Z,41.83
2022-09-23T14:12:40.031Z,42.16
2022-09-23T14:15:17.920Z,42.61
2022-09-23T14:17:54.924Z,42.49
2022-09-23T14:20:53.412Z,42.01
2022-09-23T14:23:25.023Z,41.38
2022-09-23T14:26:04.122Z,41.77
2022-09-23T14:28:37.238Z,42.43
2022-09-23T14:31:08.482Z,42.50
2022-09-23T14:33:48.148Z,42.65
2022-09-23T14:36:36.886Z,42.40
2022-09-23T14:39:18.653Z,42.80
2022-09-23T14:41:55.295Z,42.68
2022-09-23T14:44:28.294Z,42.47
2022-09-23T14:46:59.989Z,42.79
2022-09-23T14:49:28.044Z,42.86
2022-09-23T14:52:03.444Z,43.07
2022-09-23T14:54:46.008Z,43.34
2022-09-23T14:57:23.299Z,43.85
2022-09-23T15:00:06.467Z,44.59
2022-09-23T15:02:58.488Z,44.90
2022-09-23T15:05:40.026Z,44.69
2022-09-23T15:08:14.374Z,44.94
2022-09-23T15:10:42.364Z,45.08
2022-09-23T15:13:17.932Z,44.92
2022-09-23T15:15:46.141Z,45.04
2022-09-23T15:18:34.069Z,45.20
2022-09-23T15:21:12.846Z,46.69
2022-09-23T15:23:55.294Z,47.33
2022-09-23T15:26:48.653Z,47.61
2022-09-23T15:29:17.337Z,48.17
2022-09-23T15:31:46.862Z,48.10
2022-09-23T15:34:14.900Z,48.57
2022-09-23T15:36:45.141Z,49.05
2022-09-23T15:39:13.594Z,49.51
2022-09-23T15:41:43.250Z,50.04
2022-09-23T15:44:28.646Z,50.60
2022-09-23T15:47:00.456Z,51.17
2022-09-23T15:49:37.215Z,51.28
2022-09-23T15:52:06.201Z,51.52
2022-09-23T15:54:34.543Z,51.40
2022-09-23T15:57:02.432Z,51.55
2022-09-23T15:59:31.821Z,51.95
2022-09-23T16:02:04.287Z,52.06
2022-09-23T16:04:36.064Z,52.47
2022-09-23T16:07:05.704Z,52.64
2022-09-23T16:09:35.709Z,53.00
2022-09-23T16:12:03.755Z,53.16
2022-09-23T16:14:31.595Z,53.82
2022-09-23T16:16:59.753Z,54.16
2022-09-23T16:19:27.585Z,53.89
2022-09-23T16:21:55.358Z,53.89
2022-09-23T16:24:27.908Z,53.87
2022-09-23T16:27:00.015Z,53.96
2022-09-23T16:29:28.041Z,54.14
2022-09-23T16:31:55.996Z,54.33
2022-09-23T16:34:24.194Z,54.61
2022-09-23T16:36:52.030Z,55.24
2022-09-23T16:39:20.832Z,55.85
2022-09-23T16:41:48.761Z,56.11
2022-09-23T16:44:16.580Z,56.53
2022-09-23T16:46:44.441Z,56.99
2022-09-23T16:49:13.789Z,57.77
2022-09-23T16:51:42.059Z,58.92
2022-09-23T16:54:12.723Z,59.70
2022-09-23T16:56:47.042Z,60.01
2022-09-23T16:59:16.475Z,60.09
2022-09-23T17:02:05.121Z,60.59
2022-09-23T17:04:33.354Z,61.16
2022-09-23T17:07:01.310Z,62.06
2022-09-23T17:09:30.249Z,63.09
2022-09-23T17:12:28.128Z,63.46
2022-09-23T17:14:55.875Z,63.76
2022-09-23T17:17:23.735Z,63.87
2022-09-23T17:19:51.692Z,63.94
2022-09-23T17:22:19.656Z,64.31
2022-09-23T17:24:47.545Z,64.59
2022-09-23T17:27:17.220Z,65.13
2022-09-23T17:29:45.319Z,65.55
2022-09-23T17:32:13.285Z,66.18
2022-09-23T17:34:44.034Z,66.35
2022-09-23T17:37:12.093Z,66.54
2022-09-23T17:39:40.055Z,66.73
2022-09-23T17:42:08.238Z,67.06
2022-09-23T17:44:36.571Z,67.28
2022-09-23T17:47:06.349Z,67.59
2022-09-23T17:49:35.500Z,67.71
2022-09-23T17:52:07.515Z,67.80
2022-09-23T17:54:36.634Z,67.89
2022-09-23T17:57:04.838Z,68.08
2022-09-23T17:59:32.897Z,68.36
2022-09-23T18:02:00.971Z,68.84
2022-09-23T18:04:31.854Z,69.19
2022-09-23T18:06:59.847Z,69.26
2022-09-23T18:09:27.981Z,69.46
2022-09-23T18:11:56.504Z,69.83
2022-09-23T18:14:24.504Z,70.16
2022-09-23T18:16:53.828Z,70.41
2022-09-23T18:19:24.965Z,70.53
2022-09-23T18:21:56.539Z,70.63
2022-09-23T18:24:32.201Z,70.78
2022-09-23T18:27:01.567Z,70.94
2022-09-23T18:29:29.827Z,71.14
2022-09-23T18:31:59.415Z,71.31
2022-09-23T18:34:28.802Z,71.48
2022-09-23T18:36:57.325Z,71.48
2022-09-23T18:39:25.349Z,71.67
2022-09-23T18:41:53.320Z,71.63
2022-09-23T18:44:21.336Z,72.02
2022-09-23T18:46:49.289Z,72.13
2022-09-23T18:49:35.859Z,72.10
2022-09-23T18:52:03.868Z,72.36
2022-09-23T18:54:32.030Z,72.59
2022-09-23T18:57:00.269Z,72.69
2022-09-23T18:59:33.770Z,72.73
2022-09-23T19:02:02.164Z,72.75
2022-09-23T19:04:30.453Z,72.79
2022-09-23T19:06:59.488Z,72.84
2022-09-23T19:09:27.729Z,72.89
2022-09-23T19:11:56.713Z,72.95
2022-09-23T19:14:24.881Z,72.99
2022-09-23T19:16:53.002Z,73.06
2022-09-23T19:19:21.142Z,73.14
2022-09-23T19:21:49.213Z,73.15
2022-09-23T19:24:20.162Z,73.08
2022-09-23T19:26:48.842Z,73.11
2022-09-23T19:29:22.094Z,73.16
2022-09-23T19:31:51.012Z,73.15
2022-09-23T19:34:26.172Z,73.14
2022-09-23T19:36:57.453Z,73.02
2022-09-23T19:39:28.555Z,72.95
2022-09-23T19:41:56.471Z,72.98
2022-09-23T19:44:29.852Z,72.98
2022-09-23T19:46:58.017Z,72.99
2022-09-23T19:49:26.426Z,72.92
2022-09-23T19:51:56.290Z,72.92
2022-09-23T19:54:27.529Z,72.90
2022-09-23T19:56:58.725Z,72.92
2022-09-23T19:59:28.454Z,72.82
2022-09-23T20:01:56.857Z,73.02
2022-09-23T20:04:25.347Z,73.05
2022-09-23T20:06:53.362Z,72.94
2022-09-23T20:09:21.557Z,72.94
2022-09-23T20:11:49.870Z,72.77
2022-09-23T20:14:20.100Z,72.52
2022-09-23T20:16:48.486Z,72.11
2022-09-23T20:19:16.784Z,72.06
2022-09-23T20:21:48.157Z,72.02
2022-09-23T20:24:16.200Z,71.94
2022-09-23T20:27:17.037Z,72.17
2022-09-23T20:29:45.612Z,72.20
2022-09-23T20:32:13.427Z,72.52
2022-09-23T20:34:47.038Z,72.49
2022-09-23T20:37:20.455Z,72.33
2022-09-23T20:39:48.866Z,72.12
2022-09-23T20:42:19.430Z,72.08
2022-09-23T20:44:50.173Z,72.17
2022-09-23T20:47:18.995Z,71.98
2022-09-23T20:49:49.990Z,71.86
2022-09-23T20:52:21.865Z,71.75
2022-09-23T20:54:51.660Z,71.81
2022-09-23T20:57:23.743Z,71.83
2022-09-23T20:59:51.864Z,71.90
2022-09-23T21:02:20.433Z,72.32
2022-09-23T21:04:50.975Z,72.48
2022-09-23T21:07:24.263Z,72.53
2022-09-23T21:09:52.725Z,72.58
2022-09-23T21:12:23.250Z,72.75
2022-09-23T21:14:52.817Z,72.96
2022-09-23T21:17:20.829Z,73.13
2022-09-23T21:19:48.815Z,73.12
2022-09-23T21:22:18.134Z,73.19
2022-09-23T21:27:38.397Z,73.33
2022-09-23T21:30:07.775Z,73.44
2022-09-23T21:32:38.994Z,73.49
2022-09-23T21:35:08.322Z,73.72
2022-09-23T21:37:36.606Z,73.88
2022-09-23T21:40:23.784Z,73.95
2022-09-23T21:42:52.760Z,74.08
2022-09-23T21:45:20.989Z,74.13
2022-09-23T21:47:49.172Z,74.13
2022-09-23T21:50:19.421Z,74.26
2022-09-23T21:52:50.449Z,74.31
2022-09-23T21:55:19.197Z,74.37
2022-09-23T21:57:47.785Z,74.52
2022-09-23T22:00:16.165Z,74.56
2022-09-23T22:02:44.199Z,74.50
2022-09-23T22:05:11.949Z,74.57
2022-09-23T22:07:39.757Z,74.67
2022-09-23T22:10:08.080Z,74.81
2022-09-23T22:12:36.098Z,74.93
2022-09-23T22:15:09.536Z,74.83
2022-09-23T22:17:44.768Z,74.84
2022-09-23T22:20:13.766Z,74.98
2022-09-23T22:22:43.078Z,74.95
2022-09-23T22:25:12.653Z,75.01
2022-09-23T22:28:00.607Z,75.06
2022-09-23T22:30:47.631Z,75.16
2022-09-23T22:33:16.460Z,75.21
2022-09-23T22:35:46.649Z,75.28
2022-09-23T22:38:14.556Z,75.22
2022-09-23T22:40:43.607Z,75.09
2022-09-23T22:43:12.146Z,74.91
2022-09-23T22:45:40.025Z,74.76
2022-09-23T22:48:08.288Z,74.67
2022-09-23T22:50:39.789Z,74.59
2022-09-23T22:53:07.609Z,74.54
2022-09-23T22:55:35.726Z,74.47
2022-09-23T22:58:27.572Z,74.36
2022-09-23T23:00:57.308Z,74.24
2022-09-23T23:03:27.098Z,74.14
2022-09-23T23:05:57.095Z,74.07
2022-09-23T23:08:24.969Z,74.11
2022-09-23T23:10:52.735Z,74.00
2022-09-23T23:13:31.484Z,73.86
2022-09-23T23:16:04.873Z,73.81
2022-09-23T23:18:40.969Z,73.72
2022-09-23T23:21:16.057Z,73.70
2022-09-23T23:23:50.637Z,73.67
2022-09-23T23:26:28.283Z,73.75
2022-09-23T23:28:57.102Z,73.81
2022-09-23T23:31:27.873Z,73.82
2022-09-23T23:33:58.979Z,73.98
2022-09-23T23:36:26.956Z,73.98
2022-09-23T23:38:54.883Z,73.98
2022-09-23T23:41:23.364Z,73.98
2022-09-23T23:43:58.322Z,74.02
2022-09-23T23:46:29.392Z,74.11
2022-09-23T23:48:57.959Z,74.15
2022-09-23T23:51:26.743Z,74.22
2022-09-23T23:53:55.485Z,74.27
2022-09-23T23:56:26.269Z,74.34
2022-09-23T23:59:00.516Z,74.49
